メインページ
METAR-TAF:

METAR-TAF

空港 :

桂林両江国際空港

桂林, 中華人民共和国

緯度: 25-20N, 経度: 110-18E, 海抜: 166m

現時点の気象観測

当レポートは1時間7分前の03:00(UTC)に作成
南/南東の風 12kt
気温 33°C
湿度 59%
気圧 1012 hPa
視程10km以上
高度3000ftの雲はほとんどない

METAR: ZGKL 220300Z 16006MPS 9999 FEW030 33/24 Q1012 NOSIG

時間: 12:07 (04:07 UTC)

予報

当レポートは9時間0分前の19:07(UTC)に作成
予報は22日の 00時(UTC)から 22日の 24時(UTC)まで有効
の風 8kt
視程10km以上
高度3300ftの雲は散在している
22日の 07時(UTC)から 22日の 11時(UTC)まで一時的に
高度3300ftの雲はほとんどない, 積乱雲.
高度3300ftの雲は散在している

TAF: ZGKL 211907Z 2200/2224 18004MPS 9999 SCT033 TX35/2208Z TN24/2222Z TEMPO 2207/2211 FEW033CB SCT033

4,000以上の空港の気象観測と天気予報(METAR報とTAF報)

利用可能な観測所は地図上に黄色い丸と赤い丸で示す。

丸の上にカーソルを重ねると観測所名を参照できる。

次にクリックすると気象観測と天気予報を参照できる。

マップの切り替え:黒色「×」印の緑ボタンをクリックして拡大、「-」印の緑ボタンをクリックして縮小、緑色の三角印をクリックして隣りの地図に切り替え


METAR-TAF: